sensor_id;sensor_type;location;lat;lon;timestamp;P1;durP1;ratioP1;P2;durP2;ratioP2
26946;SDS011;14501;52.282;10.560;2024-01-11T00:02:18;17.45;;;9.75;;
26946;SDS011;14501;52.282;10.560;2024-01-11T00:04:44;21.00;;;10.30;;
26946;SDS011;14501;52.282;10.560;2024-01-11T00:07:10;18.05;;;8.90;;
26946;SDS011;14501;52.282;10.560;2024-01-11T00:09:41;22.45;;;9.38;;
26946;SDS011;14501;52.282;10.560;2024-01-11T00:12:07;22.17;;;10.70;;
26946;SDS011;14501;52.282;10.560;2024-01-11T00:14:33;16.15;;;9.00;;
26946;SDS011;14501;52.282;10.560;2024-01-11T00:17:00;20.35;;;11.65;;
26946;SDS011;14501;52.282;10.560;2024-01-11T00:19:26;29.80;;;9.65;;
26946;SDS011;14501;52.282;10.560;2024-01-11T00:21:51;22.98;;;9.45;;
26946;SDS011;14501;52.282;10.560;2024-01-11T00:24:17;18.60;;;7.88;;
26946;SDS011;14501;52.282;10.560;2024-01-11T00:26:43;22.05;;;9.60;;
26946;SDS011;14501;52.282;10.560;2024-01-11T00:29:09;14.95;;;8.35;;
26946;SDS011;14501;52.282;10.560;2024-01-11T00:31:34;16.70;;;7.63;;
26946;SDS011;14501;52.282;10.560;2024-01-11T00:34:01;23.20;;;10.68;;
26946;SDS011;14501;52.282;10.560;2024-01-11T00:36:26;18.38;;;8.50;;
26946;SDS011;14501;52.282;10.560;2024-01-11T00:38:53;25.42;;;9.75;;
26946;SDS011;14501;52.282;10.560;2024-01-11T00:41:19;14.32;;;8.93;;
26946;SDS011;14501;52.282;10.560;2024-01-11T00:43:45;24.50;;;11.73;;
26946;SDS011;14501;52.282;10.560;2024-01-11T00:46:11;17.05;;;8.60;;
26946;SDS011;14501;52.282;10.560;2024-01-11T00:48:37;12.93;;;9.02;;
26946;SDS011;14501;52.282;10.560;2024-01-11T00:51:06;23.45;;;9.63;;
26946;SDS011;14501;52.282;10.560;2024-01-11T00:53:31;27.75;;;9.43;;
26946;SDS011;14501;52.282;10.560;2024-01-11T00:55:58;11.13;;;7.68;;
26946;SDS011;14501;52.282;10.560;2024-01-11T00:58:24;13.88;;;7.80;;
26946;SDS011;14501;52.282;10.560;2024-01-11T01:00:50;28.00;;;13.38;;
26946;SDS011;14501;52.282;10.560;2024-01-11T01:03:17;21.08;;;10.90;;
26946;SDS011;14501;52.282;10.560;2024-01-11T01:05:43;23.15;;;9.30;;
26946;SDS011;14501;52.282;10.560;2024-01-11T01:08:10;21.80;;;9.55;;
26946;SDS011;14501;52.282;10.560;2024-01-11T01:10:35;14.00;;;8.43;;
26946;SDS011;14501;52.282;10.560;2024-01-11T01:13:01;19.33;;;8.60;;
26946;SDS011;14501;52.282;10.560;2024-01-11T01:15:27;20.70;;;8.70;;
26946;SDS011;14501;52.282;10.560;2024-01-11T01:17:53;20.10;;;10.05;;
26946;SDS011;14501;52.282;10.560;2024-01-11T01:20:19;18.88;;;10.07;;
26946;SDS011;14501;52.282;10.560;2024-01-11T01:22:45;21.88;;;9.60;;
26946;SDS011;14501;52.282;10.560;2024-01-11T01:25:11;24.80;;;10.98;;
26946;SDS011;14501;52.282;10.560;2024-01-11T01:27:37;13.43;;;8.00;;
26946;SDS011;14501;52.282;10.560;2024-01-11T01:30:03;25.60;;;10.65;;
26946;SDS011;14501;52.282;10.560;2024-01-11T01:32:29;20.70;;;8.38;;
26946;SDS011;14501;52.282;10.560;2024-01-11T01:34:55;17.15;;;8.07;;
26946;SDS011;14501;52.282;10.560;2024-01-11T01:37:21;11.30;;;6.75;;
26946;SDS011;14501;52.282;10.560;2024-01-11T01:39:47;15.27;;;8.70;;
26946;SDS011;14501;52.282;10.560;2024-01-11T01:42:13;30.88;;;9.23;;
26946;SDS011;14501;52.282;10.560;2024-01-11T01:44:39;22.02;;;8.93;;
26946;SDS011;14501;52.282;10.560;2024-01-11T01:47:06;18.00;;;9.85;;
26946;SDS011;14501;52.282;10.560;2024-01-11T01:49:33;19.90;;;7.63;;
26946;SDS011;14501;52.282;10.560;2024-01-11T01:52:00;21.48;;;9.20;;
26946;SDS011;14501;52.282;10.560;2024-01-11T01:54:26;19.17;;;9.90;;
26946;SDS011;14501;52.282;10.560;2024-01-11T01:56:52;17.90;;;8.57;;
26946;SDS011;14501;52.282;10.560;2024-01-11T01:59:19;10.38;;;6.70;;
26946;SDS011;14501;52.282;10.560;2024-01-11T02:01:46;18.88;;;9.95;;
26946;SDS011;14501;52.282;10.560;2024-01-11T02:04:12;22.23;;;9.57;;
26946;SDS011;14501;52.282;10.560;2024-01-11T02:06:40;25.13;;;11.88;;
26946;SDS011;14501;52.282;10.560;2024-01-11T02:09:06;13.38;;;7.20;;
26946;SDS011;14501;52.282;10.560;2024-01-11T02:11:33;10.63;;;7.07;;
26946;SDS011;14501;52.282;10.560;2024-01-11T02:13:59;14.70;;;7.45;;
26946;SDS011;14501;52.282;10.560;2024-01-11T02:16:25;31.83;;;9.93;;
26946;SDS011;14501;52.282;10.560;2024-01-11T02:18:51;13.32;;;6.38;;
26946;SDS011;14501;52.282;10.560;2024-01-11T02:21:16;27.67;;;11.63;;
26946;SDS011;14501;52.282;10.560;2024-01-11T02:23:43;22.65;;;8.95;;
26946;SDS011;14501;52.282;10.560;2024-01-11T02:26:11;17.30;;;8.85;;
26946;SDS011;14501;52.282;10.560;2024-01-11T02:28:36;19.60;;;10.35;;
26946;SDS011;14501;52.282;10.560;2024-01-11T02:31:02;25.65;;;12.02;;
26946;SDS011;14501;52.282;10.560;2024-01-11T02:33:28;14.10;;;6.07;;
26946;SDS011;14501;52.282;10.560;2024-01-11T02:35:54;17.77;;;8.90;;
26946;SDS011;14501;52.282;10.560;2024-01-11T02:38:20;16.77;;;7.35;;
26946;SDS011;14501;52.282;10.560;2024-01-11T02:40:46;13.63;;;6.95;;
26946;SDS011;14501;52.282;10.560;2024-01-11T02:43:13;17.15;;;7.55;;
26946;SDS011;14501;52.282;10.560;2024-01-11T02:45:39;18.77;;;8.70;;
26946;SDS011;14501;52.282;10.560;2024-01-11T02:48:05;27.38;;;8.32;;
26946;SDS011;14501;52.282;10.560;2024-01-11T02:50:31;17.02;;;7.57;;
26946;SDS011;14501;52.282;10.560;2024-01-11T02:52:57;19.98;;;8.75;;
26946;SDS011;14501;52.282;10.560;2024-01-11T02:55:23;12.98;;;7.63;;
26946;SDS011;14501;52.282;10.560;2024-01-11T02:57:48;14.40;;;8.30;;
26946;SDS011;14501;52.282;10.560;2024-01-11T03:00:14;27.55;;;8.13;;
26946;SDS011;14501;52.282;10.560;2024-01-11T03:02:39;13.07;;;6.82;;
26946;SDS011;14501;52.282;10.560;2024-01-11T03:05:05;14.95;;;8.18;;
26946;SDS011;14501;52.282;10.560;2024-01-11T03:07:31;16.85;;;6.25;;
26946;SDS011;14501;52.282;10.560;2024-01-11T03:09:58;21.10;;;7.93;;
26946;SDS011;14501;52.282;10.560;2024-01-11T03:12:23;16.70;;;9.75;;
26946;SDS011;14501;52.282;10.560;2024-01-11T03:14:51;15.60;;;5.53;;
26946;SDS011;14501;52.282;10.560;2024-01-11T03:17:17;17.90;;;9.63;;
26946;SDS011;14501;52.282;10.560;2024-01-11T03:19:43;17.98;;;7.88;;
26946;SDS011;14501;52.282;10.560;2024-01-11T03:22:08;14.10;;;6.80;;
26946;SDS011;14501;52.282;10.560;2024-01-11T03:24:37;14.63;;;7.70;;
26946;SDS011;14501;52.282;10.560;2024-01-11T03:27:04;21.33;;;9.90;;
26946;SDS011;14501;52.282;10.560;2024-01-11T03:29:31;20.02;;;9.55;;
26946;SDS011;14501;52.282;10.560;2024-01-11T03:31:56;16.70;;;9.68;;
26946;SDS011;14501;52.282;10.560;2024-01-11T03:34:22;23.33;;;6.85;;
26946;SDS011;14501;52.282;10.560;2024-01-11T03:36:48;16.77;;;8.88;;
26946;SDS011;14501;52.282;10.560;2024-01-11T03:39:14;22.90;;;8.85;;
26946;SDS011;14501;52.282;10.560;2024-01-11T03:41:43;18.60;;;8.02;;
26946;SDS011;14501;52.282;10.560;2024-01-11T03:44:09;13.75;;;7.97;;
26946;SDS011;14501;52.282;10.560;2024-01-11T03:46:35;16.13;;;9.02;;
26946;SDS011;14501;52.282;10.560;2024-01-11T03:49:01;16.17;;;7.90;;
26946;SDS011;14501;52.282;10.560;2024-01-11T03:51:27;23.27;;;9.48;;
26946;SDS011;14501;52.282;10.560;2024-01-11T03:53:53;12.60;;;6.65;;
26946;SDS011;14501;52.282;10.560;2024-01-11T03:56:19;14.93;;;6.90;;
26946;SDS011;14501;52.282;10.560;2024-01-11T03:58:45;25.75;;;9.50;;
26946;SDS011;14501;52.282;10.560;2024-01-11T04:01:11;14.00;;;6.72;;
26946;SDS011;14501;52.282;10.560;2024-01-11T04:03:36;10.93;;;7.63;;
26946;SDS011;14501;52.282;10.560;2024-01-11T04:06:03;19.08;;;9.07;;
26946;SDS011;14501;52.282;10.560;2024-01-11T04:08:29;18.17;;;8.93;;
26946;SDS011;14501;52.282;10.560;2024-01-11T04:10:54;17.30;;;9.40;;
26946;SDS011;14501;52.282;10.560;2024-01-11T04:13:20;17.17;;;9.43;;
26946;SDS011;14501;52.282;10.560;2024-01-11T04:15:46;14.30;;;7.28;;
26946;SDS011;14501;52.282;10.560;2024-01-11T04:18:12;14.43;;;7.68;;
26946;SDS011;14501;52.282;10.560;2024-01-11T04:20:38;14.27;;;6.38;;
26946;SDS011;14501;52.282;10.560;2024-01-11T04:23:04;15.10;;;8.68;;
26946;SDS011;14501;52.282;10.560;2024-01-11T04:25:30;15.57;;;7.68;;
26946;SDS011;14501;52.282;10.560;2024-01-11T04:27:55;26.27;;;8.23;;
26946;SDS011;14501;52.282;10.560;2024-01-11T04:30:21;11.25;;;7.05;;
26946;SDS011;14501;52.282;10.560;2024-01-11T04:32:47;27.70;;;8.57;;
26946;SDS011;14501;52.282;10.560;2024-01-11T04:35:13;18.60;;;9.50;;
26946;SDS011;14501;52.282;10.560;2024-01-11T04:37:38;16.40;;;8.48;;
26946;SDS011;14501;52.282;10.560;2024-01-11T04:40:05;14.55;;;8.25;;
26946;SDS011;14501;52.282;10.560;2024-01-11T04:42:32;9.57;;;6.60;;
26946;SDS011;14501;52.282;10.560;2024-01-11T04:44:57;28.05;;;9.20;;
26946;SDS011;14501;52.282;10.560;2024-01-11T04:47:23;18.13;;;8.75;;
26946;SDS011;14501;52.282;10.560;2024-01-11T04:49:49;20.88;;;8.52;;
26946;SDS011;14501;52.282;10.560;2024-01-11T04:52:15;29.85;;;9.48;;
26946;SDS011;14501;52.282;10.560;2024-01-11T04:54:41;11.80;;;7.13;;
26946;SDS011;14501;52.282;10.560;2024-01-11T04:57:07;17.70;;;9.52;;
26946;SDS011;14501;52.282;10.560;2024-01-11T04:59:32;19.60;;;7.15;;
26946;SDS011;14501;52.282;10.560;2024-01-11T05:01:58;13.60;;;8.25;;
26946;SDS011;14501;52.282;10.560;2024-01-11T05:04:24;14.43;;;7.50;;
26946;SDS011;14501;52.282;10.560;2024-01-11T05:06:51;12.07;;;6.97;;
26946;SDS011;14501;52.282;10.560;2024-01-11T05:09:17;13.60;;;8.80;;
26946;SDS011;14501;52.282;10.560;2024-01-11T05:11:43;16.33;;;8.05;;
26946;SDS011;14501;52.282;10.560;2024-01-11T05:14:08;7.32;;;5.75;;
26946;SDS011;14501;52.282;10.560;2024-01-11T05:16:34;16.10;;;7.82;;
26946;SDS011;14501;52.282;10.560;2024-01-11T05:19:01;14.68;;;8.98;;
26946;SDS011;14501;52.282;10.560;2024-01-11T05:21:27;12.23;;;8.10;;
26946;SDS011;14501;52.282;10.560;2024-01-11T05:23:53;17.92;;;7.45;;
26946;SDS011;14501;52.282;10.560;2024-01-11T05:26:18;10.48;;;5.07;;
26946;SDS011;14501;52.282;10.560;2024-01-11T05:28:45;24.70;;;8.45;;
26946;SDS011;14501;52.282;10.560;2024-01-11T05:31:12;14.73;;;7.18;;
26946;SDS011;14501;52.282;10.560;2024-01-11T05:33:42;21.10;;;7.18;;
26946;SDS011;14501;52.282;10.560;2024-01-11T05:36:08;12.48;;;5.65;;
26946;SDS011;14501;52.282;10.560;2024-01-11T05:38:35;12.85;;;7.53;;
26946;SDS011;14501;52.282;10.560;2024-01-11T05:41:01;12.10;;;8.05;;
26946;SDS011;14501;52.282;10.560;2024-01-11T05:43:27;15.45;;;9.40;;
26946;SDS011;14501;52.282;10.560;2024-01-11T05:45:53;12.27;;;6.85;;
26946;SDS011;14501;52.282;10.560;2024-01-11T05:48:19;14.25;;;7.82;;
26946;SDS011;14501;52.282;10.560;2024-01-11T05:50:45;12.95;;;7.57;;
26946;SDS011;14501;52.282;10.560;2024-01-11T05:53:12;14.10;;;6.00;;
26946;SDS011;14501;52.282;10.560;2024-01-11T05:55:38;12.68;;;6.28;;
26946;SDS011;14501;52.282;10.560;2024-01-11T05:58:04;13.27;;;6.55;;
26946;SDS011;14501;52.282;10.560;2024-01-11T06:00:30;21.20;;;6.63;;
26946;SDS011;14501;52.282;10.560;2024-01-11T06:02:56;21.45;;;7.45;;
26946;SDS011;14501;52.282;10.560;2024-01-11T06:05:22;11.60;;;7.18;;
26946;SDS011;14501;52.282;10.560;2024-01-11T06:07:49;18.45;;;7.40;;
26946;SDS011;14501;52.282;10.560;2024-01-11T06:10:15;16.48;;;6.15;;
26946;SDS011;14501;52.282;10.560;2024-01-11T06:12:41;9.57;;;5.60;;
26946;SDS011;14501;52.282;10.560;2024-01-11T06:15:08;18.60;;;7.90;;
26946;SDS011;14501;52.282;10.560;2024-01-11T06:17:34;17.83;;;6.40;;
26946;SDS011;14501;52.282;10.560;2024-01-11T06:20:00;11.80;;;6.95;;
26946;SDS011;14501;52.282;10.560;2024-01-11T06:22:26;10.95;;;7.70;;
26946;SDS011;14501;52.282;10.560;2024-01-11T06:24:52;16.83;;;6.85;;
26946;SDS011;14501;52.282;10.560;2024-01-11T06:27:18;19.73;;;7.35;;
26946;SDS011;14501;52.282;10.560;2024-01-11T06:29:44;16.33;;;5.50;;
26946;SDS011;14501;52.282;10.560;2024-01-11T06:32:10;13.55;;;6.65;;
26946;SDS011;14501;52.282;10.560;2024-01-11T06:34:36;16.80;;;8.98;;
26946;SDS011;14501;52.282;10.560;2024-01-11T06:37:02;8.88;;;6.05;;
26946;SDS011;14501;52.282;10.560;2024-01-11T06:39:29;12.88;;;7.65;;
26946;SDS011;14501;52.282;10.560;2024-01-11T06:41:55;18.35;;;8.55;;
26946;SDS011;14501;52.282;10.560;2024-01-11T06:44:21;15.55;;;7.80;;
26946;SDS011;14501;52.282;10.560;2024-01-11T06:46:47;19.77;;;8.75;;
26946;SDS011;14501;52.282;10.560;2024-01-11T06:49:13;24.88;;;7.55;;
26946;SDS011;14501;52.282;10.560;2024-01-11T06:51:41;12.40;;;7.05;;
26946;SDS011;14501;52.282;10.560;2024-01-11T06:54:07;16.77;;;7.10;;
26946;SDS011;14501;52.282;10.560;2024-01-11T06:56:32;17.73;;;5.40;;
26946;SDS011;14501;52.282;10.560;2024-01-11T06:58:58;12.63;;;6.35;;
26946;SDS011;14501;52.282;10.560;2024-01-11T07:01:23;16.27;;;7.75;;
26946;SDS011;14501;52.282;10.560;2024-01-11T07:03:57;11.93;;;5.78;;
26946;SDS011;14501;52.282;10.560;2024-01-11T07:06:23;12.10;;;6.22;;
26946;SDS011;14501;52.282;10.560;2024-01-11T07:08:49;11.52;;;6.55;;
26946;SDS011;14501;52.282;10.560;2024-01-11T07:11:14;21.35;;;7.47;;
26946;SDS011;14501;52.282;10.560;2024-01-11T07:13:41;20.92;;;8.02;;
26946;SDS011;14501;52.282;10.560;2024-01-11T07:16:07;15.73;;;7.78;;
26946;SDS011;14501;52.282;10.560;2024-01-11T07:18:33;12.68;;;7.95;;
26946;SDS011;14501;52.282;10.560;2024-01-11T07:20:59;17.05;;;7.05;;
26946;SDS011;14501;52.282;10.560;2024-01-11T07:23:25;17.20;;;7.07;;
26946;SDS011;14501;52.282;10.560;2024-01-11T07:25:51;12.77;;;7.10;;
26946;SDS011;14501;52.282;10.560;2024-01-11T07:28:16;26.50;;;9.73;;
26946;SDS011;14501;52.282;10.560;2024-01-11T07:30:42;13.35;;;7.78;;
26946;SDS011;14501;52.282;10.560;2024-01-11T07:33:08;14.30;;;6.95;;
26946;SDS011;14501;52.282;10.560;2024-01-11T07:35:34;17.33;;;7.43;;
26946;SDS011;14501;52.282;10.560;2024-01-11T07:38:00;18.02;;;6.65;;
26946;SDS011;14501;52.282;10.560;2024-01-11T07:40:26;15.73;;;7.40;;
26946;SDS011;14501;52.282;10.560;2024-01-11T07:42:52;17.80;;;7.15;;
26946;SDS011;14501;52.282;10.560;2024-01-11T07:45:18;17.50;;;8.00;;
26946;SDS011;14501;52.282;10.560;2024-01-11T07:47:44;13.85;;;6.38;;
26946;SDS011;14501;52.282;10.560;2024-01-11T07:50:09;21.02;;;8.70;;
26946;SDS011;14501;52.282;10.560;2024-01-11T07:52:35;17.85;;;6.20;;
26946;SDS011;14501;52.282;10.560;2024-01-11T07:55:04;18.15;;;7.90;;
26946;SDS011;14501;52.282;10.560;2024-01-11T07:57:36;15.93;;;9.13;;
26946;SDS011;14501;52.282;10.560;2024-01-11T08:00:03;18.38;;;10.18;;
26946;SDS011;14501;52.282;10.560;2024-01-11T08:02:32;15.93;;;9.15;;
26946;SDS011;14501;52.282;10.560;2024-01-11T08:04:58;18.52;;;8.38;;
26946;SDS011;14501;52.282;10.560;2024-01-11T08:07:27;27.17;;;9.38;;
26946;SDS011;14501;52.282;10.560;2024-01-11T08:09:53;17.60;;;8.15;;
26946;SDS011;14501;52.282;10.560;2024-01-11T08:12:19;21.98;;;8.38;;
26946;SDS011;14501;52.282;10.560;2024-01-11T08:14:45;14.10;;;6.95;;
26946;SDS011;14501;52.282;10.560;2024-01-11T08:17:12;12.50;;;7.13;;
26946;SDS011;14501;52.282;10.560;2024-01-11T08:19:38;21.60;;;7.40;;
26946;SDS011;14501;52.282;10.560;2024-01-11T08:22:05;16.25;;;7.22;;
26946;SDS011;14501;52.282;10.560;2024-01-11T08:24:31;17.38;;;6.95;;
26946;SDS011;14501;52.282;10.560;2024-01-11T08:26:56;16.05;;;7.63;;
26946;SDS011;14501;52.282;10.560;2024-01-11T08:29:22;12.02;;;8.70;;
26946;SDS011;14501;52.282;10.560;2024-01-11T08:31:48;14.25;;;6.90;;
26946;SDS011;14501;52.282;10.560;2024-01-11T08:34:14;18.60;;;8.65;;
26946;SDS011;14501;52.282;10.560;2024-01-11T08:36:39;18.23;;;8.98;;
26946;SDS011;14501;52.282;10.560;2024-01-11T08:39:05;12.82;;;8.18;;
26946;SDS011;14501;52.282;10.560;2024-01-11T08:41:32;14.25;;;6.97;;
26946;SDS011;14501;52.282;10.560;2024-01-11T08:43:58;24.00;;;9.57;;
26946;SDS011;14501;52.282;10.560;2024-01-11T08:46:26;17.90;;;10.18;;
26946;SDS011;14501;52.282;10.560;2024-01-11T08:48:53;15.40;;;8.70;;
26946;SDS011;14501;52.282;10.560;2024-01-11T08:51:21;22.40;;;9.85;;
26946;SDS011;14501;52.282;10.560;2024-01-11T08:53:46;15.52;;;7.10;;
26946;SDS011;14501;52.282;10.560;2024-01-11T08:56:12;24.63;;;8.05;;
26946;SDS011;14501;52.282;10.560;2024-01-11T08:58:39;25.50;;;8.43;;
26946;SDS011;14501;52.282;10.560;2024-01-11T09:01:05;20.80;;;7.10;;
26946;SDS011;14501;52.282;10.560;2024-01-11T09:03:33;27.10;;;8.32;;
26946;SDS011;14501;52.282;10.560;2024-01-11T09:05:59;19.17;;;6.22;;
26946;SDS011;14501;52.282;10.560;2024-01-11T09:08:25;17.80;;;7.50;;
26946;SDS011;14501;52.282;10.560;2024-01-11T09:10:51;15.45;;;6.65;;
26946;SDS011;14501;52.282;10.560;2024-01-11T09:13:18;16.00;;;6.82;;
26946;SDS011;14501;52.282;10.560;2024-01-11T09:15:43;16.65;;;7.13;;
26946;SDS011;14501;52.282;10.560;2024-01-11T09:18:09;16.83;;;6.50;;
26946;SDS011;14501;52.282;10.560;2024-01-11T09:20:35;18.52;;;7.00;;
26946;SDS011;14501;52.282;10.560;2024-01-11T09:23:00;19.25;;;7.85;;
26946;SDS011;14501;52.282;10.560;2024-01-11T09:25:30;17.95;;;6.93;;
26946;SDS011;14501;52.282;10.560;2024-01-11T09:27:55;16.70;;;7.68;;
26946;SDS011;14501;52.282;10.560;2024-01-11T09:30:21;16.13;;;6.72;;
26946;SDS011;14501;52.282;10.560;2024-01-11T09:32:46;20.60;;;7.57;;
26946;SDS011;14501;52.282;10.560;2024-01-11T09:35:12;15.23;;;6.65;;
26946;SDS011;14501;52.282;10.560;2024-01-11T09:37:38;18.10;;;7.18;;
26946;SDS011;14501;52.282;10.560;2024-01-11T09:40:04;15.23;;;6.45;;
26946;SDS011;14501;52.282;10.560;2024-01-11T09:42:35;15.35;;;7.20;;
26946;SDS011;14501;52.282;10.560;2024-01-11T09:45:08;14.88;;;6.43;;
26946;SDS011;14501;52.282;10.560;2024-01-11T09:47:44;15.82;;;6.25;;
26946;SDS011;14501;52.282;10.560;2024-01-11T09:50:15;16.27;;;6.88;;
26946;SDS011;14501;52.282;10.560;2024-01-11T09:52:45;15.25;;;7.15;;
26946;SDS011;14501;52.282;10.560;2024-01-11T09:55:13;17.77;;;6.65;;
26946;SDS011;14501;52.282;10.560;2024-01-11T09:57:41;16.75;;;7.20;;
26946;SDS011;14501;52.282;10.560;2024-01-11T10:00:22;16.50;;;7.28;;
26946;SDS011;14501;52.282;10.560;2024-01-11T10:02:48;18.33;;;7.20;;
26946;SDS011;14501;52.282;10.560;2024-01-11T10:05:15;17.92;;;7.07;;
26946;SDS011;14501;52.282;10.560;2024-01-11T10:07:42;14.68;;;6.10;;
26946;SDS011;14501;52.282;10.560;2024-01-11T10:10:08;15.65;;;6.25;;
26946;SDS011;14501;52.282;10.560;2024-01-11T10:12:35;13.45;;;6.20;;
26946;SDS011;14501;52.282;10.560;2024-01-11T10:15:08;13.07;;;5.32;;
26946;SDS011;14501;52.282;10.560;2024-01-11T10:17:34;10.20;;;4.85;;
26946;SDS011;14501;52.282;10.560;2024-01-11T10:20:06;10.75;;;4.85;;
26946;SDS011;14501;52.282;10.560;2024-01-11T10:22:35;14.20;;;5.25;;
26946;SDS011;14501;52.282;10.560;2024-01-11T10:25:08;11.73;;;5.03;;
26946;SDS011;14501;52.282;10.560;2024-01-11T10:27:36;9.35;;;4.03;;
26946;SDS011;14501;52.282;10.560;2024-01-11T10:30:02;11.20;;;4.47;;
26946;SDS011;14501;52.282;10.560;2024-01-11T10:32:28;14.10;;;4.72;;
26946;SDS011;14501;52.282;10.560;2024-01-11T10:34:54;15.00;;;5.05;;
26946;SDS011;14501;52.282;10.560;2024-01-11T10:37:21;11.63;;;4.15;;
26946;SDS011;14501;52.282;10.560;2024-01-11T10:39:48;8.90;;;4.38;;
26946;SDS011;14501;52.282;10.560;2024-01-11T10:42:15;11.30;;;4.47;;
26946;SDS011;14501;52.282;10.560;2024-01-11T10:44:46;11.30;;;4.85;;
26946;SDS011;14501;52.282;10.560;2024-01-11T10:47:13;10.70;;;4.97;;
26946;SDS011;14501;52.282;10.560;2024-01-11T10:49:40;12.32;;;3.95;;
26946;SDS011;14501;52.282;10.560;2024-01-11T10:52:08;12.95;;;4.85;;
26946;SDS011;14501;52.282;10.560;2024-01-11T10:54:37;12.32;;;4.63;;
26946;SDS011;14501;52.282;10.560;2024-01-11T10:57:06;10.98;;;4.10;;
26946;SDS011;14501;52.282;10.560;2024-01-11T10:59:33;13.68;;;5.15;;
26946;SDS011;14501;52.282;10.560;2024-01-11T11:02:05;11.63;;;4.72;;
26946;SDS011;14501;52.282;10.560;2024-01-11T11:04:38;13.55;;;3.90;;
26946;SDS011;14501;52.282;10.560;2024-01-11T11:07:05;10.40;;;4.78;;
26946;SDS011;14501;52.282;10.560;2024-01-11T11:09:32;11.88;;;4.32;;
26946;SDS011;14501;52.282;10.560;2024-01-11T11:12:00;13.35;;;4.50;;
26946;SDS011;14501;52.282;10.560;2024-01-11T11:14:26;13.55;;;5.35;;
26946;SDS011;14501;52.282;10.560;2024-01-11T11:16:53;11.00;;;3.85;;
26946;SDS011;14501;52.282;10.560;2024-01-11T11:19:19;12.48;;;5.55;;
26946;SDS011;14501;52.282;10.560;2024-01-11T11:21:46;13.77;;;5.15;;
26946;SDS011;14501;52.282;10.560;2024-01-11T11:24:13;15.77;;;4.45;;
26946;SDS011;14501;52.282;10.560;2024-01-11T11:26:39;13.65;;;4.80;;
26946;SDS011;14501;52.282;10.560;2024-01-11T11:29:05;11.80;;;4.38;;
26946;SDS011;14501;52.282;10.560;2024-01-11T11:31:37;11.75;;;4.63;;
26946;SDS011;14501;52.282;10.560;2024-01-11T11:34:06;13.43;;;4.40;;
26946;SDS011;14501;52.282;10.560;2024-01-11T11:36:33;11.18;;;4.60;;
26946;SDS011;14501;52.282;10.560;2024-01-11T11:38:59;11.85;;;4.80;;
26946;SDS011;14501;52.282;10.560;2024-01-11T11:41:26;11.88;;;4.30;;
26946;SDS011;14501;52.282;10.560;2024-01-11T11:43:52;10.77;;;4.18;;
26946;SDS011;14501;52.282;10.560;2024-01-11T11:46:18;8.57;;;4.45;;
26946;SDS011;14501;52.282;10.560;2024-01-11T11:48:48;13.48;;;5.00;;
26946;SDS011;14501;52.282;10.560;2024-01-11T11:51:16;10.60;;;4.35;;
26946;SDS011;14501;52.282;10.560;2024-01-11T11:53:43;9.52;;;4.63;;
26946;SDS011;14501;52.282;10.560;2024-01-11T11:56:10;15.32;;;5.60;;
26946;SDS011;14501;52.282;10.560;2024-01-11T11:58:36;14.77;;;4.15;;
26946;SDS011;14501;52.282;10.560;2024-01-11T12:01:02;9.63;;;5.10;;
26946;SDS011;14501;52.282;10.560;2024-01-11T12:03:33;12.55;;;4.65;;
26946;SDS011;14501;52.282;10.560;2024-01-11T12:06:02;15.55;;;5.63;;
26946;SDS011;14501;52.282;10.560;2024-01-11T12:08:32;11.73;;;5.40;;
26946;SDS011;14501;52.282;10.560;2024-01-11T12:10:58;14.32;;;5.05;;
26946;SDS011;14501;52.282;10.560;2024-01-11T12:13:24;20.52;;;5.15;;
26946;SDS011;14501;52.282;10.560;2024-01-11T12:15:50;12.15;;;4.82;;
26946;SDS011;14501;52.282;10.560;2024-01-11T12:18:16;16.27;;;6.18;;
26946;SDS011;14501;52.282;10.560;2024-01-11T12:20:42;14.63;;;4.57;;
26946;SDS011;14501;52.282;10.560;2024-01-11T12:23:08;14.60;;;5.65;;
26946;SDS011;14501;52.282;10.560;2024-01-11T12:25:34;20.60;;;6.05;;
26946;SDS011;14501;52.282;10.560;2024-01-11T12:28:00;10.20;;;4.65;;
26946;SDS011;14501;52.282;10.560;2024-01-11T12:30:26;15.65;;;4.82;;
26946;SDS011;14501;52.282;10.560;2024-01-11T12:32:53;15.98;;;5.25;;
26946;SDS011;14501;52.282;10.560;2024-01-11T12:35:20;19.73;;;6.13;;
26946;SDS011;14501;52.282;10.560;2024-01-11T12:37:53;16.13;;;5.68;;
26946;SDS011;14501;52.282;10.560;2024-01-11T12:40:26;15.55;;;6.15;;
26946;SDS011;14501;52.282;10.560;2024-01-11T12:42:53;10.85;;;5.88;;
26946;SDS011;14501;52.282;10.560;2024-01-11T12:45:22;12.45;;;4.78;;
26946;SDS011;14501;52.282;10.560;2024-01-11T12:47:48;12.07;;;5.03;;
26946;SDS011;14501;52.282;10.560;2024-01-11T12:50:14;9.52;;;5.35;;
26946;SDS011;14501;52.282;10.560;2024-01-11T12:52:40;14.50;;;5.20;;
26946;SDS011;14501;52.282;10.560;2024-01-11T12:55:27;21.63;;;5.45;;
26946;SDS011;14501;52.282;10.560;2024-01-11T12:58:03;12.68;;;5.13;;
26946;SDS011;14501;52.282;10.560;2024-01-11T13:00:32;11.70;;;4.43;;
26946;SDS011;14501;52.282;10.560;2024-01-11T13:02:58;17.00;;;5.50;;
26946;SDS011;14501;52.282;10.560;2024-01-11T13:05:24;18.75;;;6.15;;
26946;SDS011;14501;52.282;10.560;2024-01-11T13:07:50;15.32;;;5.22;;
26946;SDS011;14501;52.282;10.560;2024-01-11T13:10:16;14.52;;;4.65;;
26946;SDS011;14501;52.282;10.560;2024-01-11T13:12:42;14.45;;;5.70;;
26946;SDS011;14501;52.282;10.560;2024-01-11T13:15:08;9.95;;;4.13;;
26946;SDS011;14501;52.282;10.560;2024-01-11T13:17:34;17.83;;;5.15;;
26946;SDS011;14501;52.282;10.560;2024-01-11T13:19:59;19.88;;;6.20;;
26946;SDS011;14501;52.282;10.560;2024-01-11T13:22:26;14.07;;;5.00;;
26946;SDS011;14501;52.282;10.560;2024-01-11T13:24:52;17.23;;;4.80;;
26946;SDS011;14501;52.282;10.560;2024-01-11T13:27:17;8.10;;;4.32;;
26946;SDS011;14501;52.282;10.560;2024-01-11T13:29:43;14.60;;;4.75;;
26946;SDS011;14501;52.282;10.560;2024-01-11T13:32:09;12.88;;;4.32;;
26946;SDS011;14501;52.282;10.560;2024-01-11T13:34:35;11.07;;;4.45;;
26946;SDS011;14501;52.282;10.560;2024-01-11T13:37:01;14.32;;;5.03;;
26946;SDS011;14501;52.282;10.560;2024-01-11T13:39:28;12.65;;;5.63;;
26946;SDS011;14501;52.282;10.560;2024-01-11T13:41:53;12.00;;;4.80;;
26946;SDS011;14501;52.282;10.560;2024-01-11T13:44:19;9.77;;;4.25;;
26946;SDS011;14501;52.282;10.560;2024-01-11T13:46:45;12.05;;;4.57;;
26946;SDS011;14501;52.282;10.560;2024-01-11T13:49:11;10.63;;;3.92;;
26946;SDS011;14501;52.282;10.560;2024-01-11T13:51:36;12.35;;;4.90;;
26946;SDS011;14501;52.282;10.560;2024-01-11T13:54:03;11.43;;;5.57;;
26946;SDS011;14501;52.282;10.560;2024-01-11T13:56:29;12.45;;;5.03;;
26946;SDS011;14501;52.282;10.560;2024-01-11T13:58:55;13.30;;;5.78;;
26946;SDS011;14501;52.282;10.560;2024-01-11T14:01:21;19.08;;;5.20;;
26946;SDS011;14501;52.282;10.560;2024-01-11T14:03:47;10.68;;;5.72;;
26946;SDS011;14501;52.282;10.560;2024-01-11T14:06:12;13.82;;;4.78;;
26946;SDS011;14501;52.282;10.560;2024-01-11T14:08:38;10.35;;;5.20;;
26946;SDS011;14501;52.282;10.560;2024-01-11T14:11:04;14.63;;;5.35;;
26946;SDS011;14501;52.282;10.560;2024-01-11T14:13:29;13.32;;;5.45;;
26946;SDS011;14501;52.282;10.560;2024-01-11T14:15:55;18.00;;;6.55;;
26946;SDS011;14501;52.282;10.560;2024-01-11T14:18:24;16.98;;;7.63;;